sensor_id;sensor_type;location;lat;lon;timestamp;pressure;altitude;pressure_sealevel;temperature;humidity
44457;BME280;30159;49.316;8.558;2022-09-13T00:02:05;99949.31;;;16.42;100.00
44457;BME280;30159;49.316;8.558;2022-09-13T00:04:32;99941.34;;;16.37;100.00
44457;BME280;30159;49.316;8.558;2022-09-13T00:06:58;99949.03;;;16.35;100.00
44457;BME280;30159;49.316;8.558;2022-09-13T00:09:26;99941.34;;;16.37;100.00
44457;BME280;30159;49.316;8.558;2022-09-13T00:11:52;99932.69;;;16.35;100.00
44457;BME280;30159;49.316;8.558;2022-09-13T00:14:19;99913.22;;;16.24;100.00
44457;BME280;30159;49.316;8.558;2022-09-13T00:16:45;99913.84;;;16.30;100.00
44457;BME280;30159;49.316;8.558;2022-09-13T00:19:12;99904.06;;;16.29;100.00
44457;BME280;30159;49.316;8.558;2022-09-13T00:21:38;99910.19;;;16.26;100.00
44457;BME280;30159;49.316;8.558;2022-09-13T00:24:05;99910.22;;;16.17;100.00
44457;BME280;30159;49.316;8.558;2022-09-13T00:26:33;99905.13;;;16.15;100.00
44457;BME280;30159;49.316;8.558;2022-09-13T00:28:59;99912.47;;;16.15;100.00
44457;BME280;30159;49.316;8.558;2022-09-13T00:31:27;99871.34;;;15.87;100.00
44457;BME280;30159;49.316;8.558;2022-09-13T00:33:53;99911.00;;;16.17;100.00
44457;BME280;30159;49.316;8.558;2022-09-13T00:36:20;99857.63;;;15.83;100.00
44457;BME280;30159;49.316;8.558;2022-09-13T00:38:46;99911.69;;;16.14;100.00
44457;BME280;30159;49.316;8.558;2022-09-13T00:41:14;99899.84;;;16.10;100.00
44457;BME280;30159;49.316;8.558;2022-09-13T00:43:46;99916.19;;;16.10;100.00
44457;BME280;30159;49.316;8.558;2022-09-13T00:46:17;99839.75;;;15.65;100.00
44457;BME280;30159;49.316;8.558;2022-09-13T00:48:46;99911.59;;;16.02;100.00
44457;BME280;30159;49.316;8.558;2022-09-13T00:51:13;99920.53;;;16.02;100.00
44457;BME280;30159;49.316;8.558;2022-09-13T00:53:43;99924.53;;;16.05;100.00
44457;BME280;30159;49.316;8.558;2022-09-13T00:56:16;99872.50;;;15.68;100.00
44457;BME280;30159;49.316;8.558;2022-09-13T00:58:50;99927.91;;;16.02;100.00
44457;BME280;30159;49.316;8.558;2022-09-13T01:01:20;99922.09;;;16.12;100.00
44457;BME280;30159;49.316;8.558;2022-09-13T01:03:48;99921.81;;;16.05;100.00
44457;BME280;30159;49.316;8.558;2022-09-13T01:06:18;99916.69;;;16.04;100.00
44457;BME280;30159;49.316;8.558;2022-09-13T01:08:48;99913.84;;;16.00;100.00
44457;BME280;30159;49.316;8.558;2022-09-13T01:11:19;99903.94;;;15.95;100.00
44457;BME280;30159;49.316;8.558;2022-09-13T01:13:53;99910.97;;;15.96;100.00
44457;BME280;30159;49.316;8.558;2022-09-13T01:16:21;99916.28;;;15.93;100.00
44457;BME280;30159;49.316;8.558;2022-09-13T01:18:47;99920.09;;;15.92;100.00
44457;BME280;30159;49.316;8.558;2022-09-13T01:24:36;99910.88;;;15.84;100.00
44457;BME280;30159;49.316;8.558;2022-09-13T01:27:17;99911.63;;;15.93;100.00
44457;BME280;30159;49.316;8.558;2022-09-13T01:30:19;99918.06;;;15.89;100.00
44457;BME280;30159;49.316;8.558;2022-09-13T01:33:14;99915.03;;;15.82;100.00
44457;BME280;30159;49.316;8.558;2022-09-13T01:36:04;99914.38;;;15.85;100.00
44457;BME280;30159;49.316;8.558;2022-09-13T01:38:50;99908.47;;;15.83;100.00
44457;BME280;30159;49.316;8.558;2022-09-13T01:41:34;99903.56;;;15.67;100.00
44457;BME280;30159;49.316;8.558;2022-09-13T01:44:14;99888.25;;;15.54;100.00
44457;BME280;30159;49.316;8.558;2022-09-13T01:46:50;99923.69;;;15.66;100.00
44457;BME280;30159;49.316;8.558;2022-09-13T01:49:28;99929.94;;;15.67;100.00
44457;BME280;30159;49.316;8.558;2022-09-13T01:52:00;99932.84;;;15.70;100.00
44457;BME280;30159;49.316;8.558;2022-09-13T01:54:33;99934.25;;;15.76;100.00
44457;BME280;30159;49.316;8.558;2022-09-13T01:57:09;99932.63;;;15.84;100.00
44457;BME280;30159;49.316;8.558;2022-09-13T01:59:46;99931.34;;;15.82;100.00
44457;BME280;30159;49.316;8.558;2022-09-13T02:02:19;99914.88;;;15.78;100.00
44457;BME280;30159;49.316;8.558;2022-09-13T02:04:51;99919.81;;;15.85;100.00
44457;BME280;30159;49.316;8.558;2022-09-13T02:07:21;99924.00;;;15.82;100.00
44457;BME280;30159;49.316;8.558;2022-09-13T02:09:53;99924.84;;;15.74;100.00
44457;BME280;30159;49.316;8.558;2022-09-13T02:12:24;99927.41;;;15.70;100.00
44457;BME280;30159;49.316;8.558;2022-09-13T02:14:55;99932.19;;;15.65;100.00
44457;BME280;30159;49.316;8.558;2022-09-13T02:17:28;99931.91;;;15.57;100.00
44457;BME280;30159;49.316;8.558;2022-09-13T02:19:57;99934.75;;;15.61;100.00
44457;BME280;30159;49.316;8.558;2022-09-13T02:22:28;99935.09;;;15.51;100.00
44457;BME280;30159;49.316;8.558;2022-09-13T02:25:00;99947.56;;;15.60;100.00
44457;BME280;30159;49.316;8.558;2022-09-13T02:27:32;99944.50;;;15.62;100.00
44457;BME280;30159;49.316;8.558;2022-09-13T02:30:03;99941.81;;;15.62;100.00
44457;BME280;30159;49.316;8.558;2022-09-13T02:32:34;99934.44;;;15.63;100.00
44457;BME280;30159;49.316;8.558;2022-09-13T02:35:04;99935.53;;;15.62;100.00
44457;BME280;30159;49.316;8.558;2022-09-13T02:37:33;99936.50;;;15.57;100.00
44457;BME280;30159;49.316;8.558;2022-09-13T02:40:04;99929.31;;;15.52;100.00
44457;BME280;30159;49.316;8.558;2022-09-13T02:42:35;99925.03;;;15.43;100.00
44457;BME280;30159;49.316;8.558;2022-09-13T02:45:07;99905.75;;;15.09;100.00
44457;BME280;30159;49.316;8.558;2022-09-13T02:47:41;99944.41;;;15.32;100.00
44457;BME280;30159;49.316;8.558;2022-09-13T02:50:23;99950.97;;;15.23;100.00
44457;BME280;30159;49.316;8.558;2022-09-13T02:53:01;99945.72;;;15.17;100.00
44457;BME280;30159;49.316;8.558;2022-09-13T02:55:35;99943.78;;;15.09;100.00
44457;BME280;30159;49.316;8.558;2022-09-13T02:58:08;99928.78;;;15.03;100.00
44457;BME280;30159;49.316;8.558;2022-09-13T03:00:37;99921.94;;;14.97;100.00
44457;BME280;30159;49.316;8.558;2022-09-13T03:03:08;99933.25;;;15.08;100.00
44457;BME280;30159;49.316;8.558;2022-09-13T03:05:36;99920.78;;;15.07;100.00
44457;BME280;30159;49.316;8.558;2022-09-13T03:08:03;99925.09;;;15.08;100.00
44457;BME280;30159;49.316;8.558;2022-09-13T03:10:37;99920.31;;;15.05;100.00
44457;BME280;30159;49.316;8.558;2022-09-13T03:13:31;99920.16;;;15.01;100.00
44457;BME280;30159;49.316;8.558;2022-09-13T03:16:06;99919.03;;;15.02;100.00
44457;BME280;30159;49.316;8.558;2022-09-13T03:18:47;99926.06;;;15.03;100.00
44457;BME280;30159;49.316;8.558;2022-09-13T03:21:29;99933.41;;;15.03;100.00
44457;BME280;30159;49.316;8.558;2022-09-13T03:24:06;99915.53;;;15.02;100.00
44457;BME280;30159;49.316;8.558;2022-09-13T03:26:41;99927.19;;;15.02;100.00
44457;BME280;30159;49.316;8.558;2022-09-13T03:29:26;99919.69;;;14.99;100.00
44457;BME280;30159;49.316;8.558;2022-09-13T03:32:04;99919.81;;;14.94;100.00
44457;BME280;30159;49.316;8.558;2022-09-13T03:34:42;99913.94;;;14.92;100.00
44457;BME280;30159;49.316;8.558;2022-09-13T03:37:18;99855.47;;;14.77;100.00
44457;BME280;30159;49.316;8.558;2022-09-13T03:39:51;99872.69;;;14.99;100.00
44457;BME280;30159;49.316;8.558;2022-09-13T03:42:22;99886.63;;;14.97;100.00
44457;BME280;30159;49.316;8.558;2022-09-13T03:44:52;99891.75;;;14.90;100.00
44457;BME280;30159;49.316;8.558;2022-09-13T03:47:22;99826.06;;;14.36;100.00
44457;BME280;30159;49.316;8.558;2022-09-13T03:49:51;99901.78;;;14.89;100.00
44457;BME280;30159;49.316;8.558;2022-09-13T03:52:19;99896.34;;;14.89;100.00
44457;BME280;30159;49.316;8.558;2022-09-13T03:54:46;99892.34;;;14.87;100.00
44457;BME280;30159;49.316;8.558;2022-09-13T03:57:15;99903.88;;;14.84;100.00
44457;BME280;30159;49.316;8.558;2022-09-13T03:59:44;99911.22;;;14.83;100.00
44457;BME280;30159;49.316;8.558;2022-09-13T04:02:11;99907.84;;;14.86;100.00
44457;BME280;30159;49.316;8.558;2022-09-13T04:04:39;99912.03;;;14.92;100.00
44457;BME280;30159;49.316;8.558;2022-09-13T04:07:09;99901.78;;;14.98;100.00
44457;BME280;30159;49.316;8.558;2022-09-13T04:09:36;99872.09;;;14.67;100.00
44457;BME280;30159;49.316;8.558;2022-09-13T04:12:03;99912.03;;;15.01;100.00
44457;BME280;30159;49.316;8.558;2022-09-13T04:14:30;99922.84;;;15.10;100.00
44457;BME280;30159;49.316;8.558;2022-09-13T04:16:56;99928.13;;;15.15;100.00
44457;BME280;30159;49.316;8.558;2022-09-13T04:19:24;99920.75;;;15.24;100.00
44457;BME280;30159;49.316;8.558;2022-09-13T04:21:52;99913.56;;;15.28;100.00
44457;BME280;30159;49.316;8.558;2022-09-13T04:24:23;99920.44;;;15.26;100.00
44457;BME280;30159;49.316;8.558;2022-09-13T04:26:50;99900.94;;;15.15;100.00
44457;BME280;30159;49.316;8.558;2022-09-13T04:29:18;99913.75;;;15.23;100.00
44457;BME280;30159;49.316;8.558;2022-09-13T04:31:45;99909.44;;;15.22;100.00
44457;BME280;30159;49.316;8.558;2022-09-13T04:34:12;99908.47;;;15.18;100.00
44457;BME280;30159;49.316;8.558;2022-09-13T04:36:39;99904.31;;;15.12;100.00
44457;BME280;30159;49.316;8.558;2022-09-13T04:39:06;99923.19;;;15.08;100.00
44457;BME280;30159;49.316;8.558;2022-09-13T04:41:33;99917.59;;;15.05;100.00
44457;BME280;30159;49.316;8.558;2022-09-13T04:44:01;99912.66;;;15.07;100.00
44457;BME280;30159;49.316;8.558;2022-09-13T04:46:28;99915.19;;;15.03;100.00
44457;BME280;30159;49.316;8.558;2022-09-13T04:48:55;99921.44;;;15.04;100.00
44457;BME280;30159;49.316;8.558;2022-09-13T04:51:21;99924.13;;;15.12;100.00
44457;BME280;30159;49.316;8.558;2022-09-13T04:53:51;99924.31;;;15.16;100.00
44457;BME280;30159;49.316;8.558;2022-09-13T04:56:18;99919.66;;;15.16;100.00
44457;BME280;30159;49.316;8.558;2022-09-13T04:58:46;99921.41;;;15.21;100.00
44457;BME280;30159;49.316;8.558;2022-09-13T05:01:13;99918.69;;;15.21;100.00
44457;BME280;30159;49.316;8.558;2022-09-13T05:03:39;99919.34;;;15.18;100.00
44457;BME280;30159;49.316;8.558;2022-09-13T05:06:07;99855.97;;;14.79;100.00
44457;BME280;30159;49.316;8.558;2022-09-13T05:08:34;99930.22;;;15.18;100.00
44457;BME280;30159;49.316;8.558;2022-09-13T05:11:01;99931.97;;;15.23;100.00
44457;BME280;30159;49.316;8.558;2022-09-13T05:13:29;99794.16;;;14.32;100.00
44457;BME280;30159;49.316;8.558;2022-09-13T05:15:59;99942.50;;;15.24;100.00
44457;BME280;30159;49.316;8.558;2022-09-13T05:18:26;99938.50;;;15.30;100.00
44457;BME280;30159;49.316;8.558;2022-09-13T05:20:53;99941.53;;;15.37;100.00
44457;BME280;30159;49.316;8.558;2022-09-13T05:23:21;99952.56;;;15.41;100.00
44457;BME280;30159;49.316;8.558;2022-09-13T05:25:52;99961.66;;;15.45;100.00
44457;BME280;30159;49.316;8.558;2022-09-13T05:28:19;99968.81;;;15.50;100.00
44457;BME280;30159;49.316;8.558;2022-09-13T05:30:53;99963.88;;;15.52;100.00
44457;BME280;30159;49.316;8.558;2022-09-13T05:33:21;99974.25;;;15.58;100.00
44457;BME280;30159;49.316;8.558;2022-09-13T05:35:49;99934.94;;;15.47;100.00
44457;BME280;30159;49.316;8.558;2022-09-13T05:38:15;99970.28;;;15.73;100.00
44457;BME280;30159;49.316;8.558;2022-09-13T05:40:42;99979.06;;;15.70;100.00
44457;BME280;30159;49.316;8.558;2022-09-13T05:43:08;99958.38;;;15.78;100.00
44457;BME280;30159;49.316;8.558;2022-09-13T05:45:35;99954.16;;;15.98;100.00
44457;BME280;30159;49.316;8.558;2022-09-13T05:48:02;99954.94;;;16.07;100.00
44457;BME280;30159;49.316;8.558;2022-09-13T05:50:30;99964.69;;;16.08;100.00
44457;BME280;30159;49.316;8.558;2022-09-13T05:52:56;99957.84;;;16.02;100.00
44457;BME280;30159;49.316;8.558;2022-09-13T05:55:23;99957.47;;;16.12;100.00
44457;BME280;30159;49.316;8.558;2022-09-13T05:57:51;99959.84;;;16.22;100.00
44457;BME280;30159;49.316;8.558;2022-09-13T06:00:18;99944.56;;;16.30;100.00
44457;BME280;30159;49.316;8.558;2022-09-13T06:02:45;99954.28;;;16.40;100.00
44457;BME280;30159;49.316;8.558;2022-09-13T06:05:11;99946.28;;;16.64;100.00
44457;BME280;30159;49.316;8.558;2022-09-13T06:07:40;99954.16;;;16.87;100.00
44457;BME280;30159;49.316;8.558;2022-09-13T06:10:08;99956.94;;;17.20;100.00
44457;BME280;30159;49.316;8.558;2022-09-13T06:12:34;99966.44;;;17.47;100.00
44457;BME280;30159;49.316;8.558;2022-09-13T06:15:01;99972.53;;;17.65;100.00
44457;BME280;30159;49.316;8.558;2022-09-13T06:17:27;99960.09;;;17.89;98.85
44457;BME280;30159;49.316;8.558;2022-09-13T06:19:54;99950.69;;;18.23;96.77
44457;BME280;30159;49.316;8.558;2022-09-13T06:22:21;99939.03;;;18.39;96.19
44457;BME280;30159;49.316;8.558;2022-09-13T06:24:49;99931.97;;;18.50;94.64
44457;BME280;30159;49.316;8.558;2022-09-13T06:27:16;99951.50;;;18.89;93.23
44457;BME280;30159;49.316;8.558;2022-09-13T06:29:42;99958.94;;;19.04;91.47
44457;BME280;30159;49.316;8.558;2022-09-13T06:32:09;99960.56;;;19.05;91.28
44457;BME280;30159;49.316;8.558;2022-09-13T06:34:35;99942.13;;;19.02;91.10
44457;BME280;30159;49.316;8.558;2022-09-13T06:37:02;99934.31;;;18.88;90.72
44457;BME280;30159;49.316;8.558;2022-09-13T06:39:29;99942.19;;;18.65;92.73
44457;BME280;30159;49.316;8.558;2022-09-13T06:41:57;99946.88;;;18.52;94.49
44457;BME280;30159;49.316;8.558;2022-09-13T06:44:24;99943.22;;;18.48;93.74
44457;BME280;30159;49.316;8.558;2022-09-13T06:46:50;99936.09;;;18.44;94.27
44457;BME280;30159;49.316;8.558;2022-09-13T06:49:17;99933.81;;;18.33;95.73
44457;BME280;30159;49.316;8.558;2022-09-13T06:51:43;99928.59;;;18.28;95.78
44457;BME280;30159;49.316;8.558;2022-09-13T06:54:10;99942.69;;;18.43;95.97
44457;BME280;30159;49.316;8.558;2022-09-13T06:56:37;99939.25;;;18.46;96.57
44457;BME280;30159;49.316;8.558;2022-09-13T06:59:07;99939.25;;;18.46;97.06
44457;BME280;30159;49.316;8.558;2022-09-13T07:01:37;99949.06;;;18.47;97.28
44457;BME280;30159;49.316;8.558;2022-09-13T07:04:06;99950.84;;;18.55;96.73
44457;BME280;30159;49.316;8.558;2022-09-13T07:06:34;99954.94;;;18.61;96.43
44457;BME280;30159;49.316;8.558;2022-09-13T07:09:03;99945.84;;;18.57;96.83
44457;BME280;30159;49.316;8.558;2022-09-13T07:11:33;99947.09;;;18.60;96.95
44457;BME280;30159;49.316;8.558;2022-09-13T07:14:01;99933.06;;;18.73;94.35
44457;BME280;30159;49.316;8.558;2022-09-13T07:16:30;99941.50;;;18.81;93.10
44457;BME280;30159;49.316;8.558;2022-09-13T07:18:59;99933.88;;;18.86;94.07
44457;BME280;30159;49.316;8.558;2022-09-13T07:21:26;99930.97;;;18.95;93.45
44457;BME280;30159;49.316;8.558;2022-09-13T07:23:54;99919.31;;;19.10;92.10
44457;BME280;30159;49.316;8.558;2022-09-13T07:26:22;99929.19;;;19.15;92.17
44457;BME280;30159;49.316;8.558;2022-09-13T07:28:53;99920.53;;;18.85;91.72
44457;BME280;30159;49.316;8.558;2022-09-13T07:31:21;99936.69;;;19.18;91.60
44457;BME280;30159;49.316;8.558;2022-09-13T07:33:52;99943.56;;;19.40;90.06
44457;BME280;30159;49.316;8.558;2022-09-13T07:36:19;99950.53;;;19.37;88.73
44457;BME280;30159;49.316;8.558;2022-09-13T07:38:46;99935.28;;;19.52;88.76
44457;BME280;30159;49.316;8.558;2022-09-13T07:41:14;99934.44;;;20.12;87.03
44457;BME280;30159;49.316;8.558;2022-09-13T07:43:41;99946.78;;;20.21;84.91
44457;BME280;30159;49.316;8.558;2022-09-13T07:46:10;99953.50;;;20.24;85.03
44457;BME280;30159;49.316;8.558;2022-09-13T07:48:38;99958.50;;;20.54;85.72
44457;BME280;30159;49.316;8.558;2022-09-13T07:51:08;99953.13;;;20.77;82.41
44457;BME280;30159;49.316;8.558;2022-09-13T07:53:36;99950.97;;;20.51;82.75
44457;BME280;30159;49.316;8.558;2022-09-13T07:56:04;99949.63;;;20.96;82.31
44457;BME280;30159;49.316;8.558;2022-09-13T07:58:32;99948.66;;;21.27;80.52
44457;BME280;30159;49.316;8.558;2022-09-13T08:01:03;99942.16;;;20.77;80.96
44457;BME280;30159;49.316;8.558;2022-09-13T08:03:31;99940.66;;;20.79;82.46
44457;BME280;30159;49.316;8.558;2022-09-13T08:05:58;99940.38;;;20.49;82.58
44457;BME280;30159;49.316;8.558;2022-09-13T08:08:27;99927.94;;;20.91;81.54
44457;BME280;30159;49.316;8.558;2022-09-13T08:10:53;99925.22;;;20.91;82.36
44457;BME280;30159;49.316;8.558;2022-09-13T08:13:21;99931.97;;;21.16;81.75
44457;BME280;30159;49.316;8.558;2022-09-13T08:15:48;99926.84;;;21.34;80.52
44457;BME280;30159;49.316;8.558;2022-09-13T08:18:14;99931.91;;;21.52;80.04
44457;BME280;30159;49.316;8.558;2022-09-13T08:20:41;99940.31;;;21.62;79.95
44457;BME280;30159;49.316;8.558;2022-09-13T08:23:09;99955.34;;;21.68;79.78
44457;BME280;30159;49.316;8.558;2022-09-13T08:25:38;99950.97;;;22.14;76.66
44457;BME280;30159;49.316;8.558;2022-09-13T08:28:06;99937.44;;;21.55;76.33
44457;BME280;30159;49.316;8.558;2022-09-13T08:30:33;99933.06;;;21.74;77.39
44457;BME280;30159;49.316;8.558;2022-09-13T08:33:01;99938.06;;;21.68;77.18
44457;BME280;30159;49.316;8.558;2022-09-13T08:35:29;99937.34;;;21.71;78.03
44457;BME280;30159;49.316;8.558;2022-09-13T08:37:55;99927.22;;;21.52;78.27
44457;BME280;30159;49.316;8.558;2022-09-13T08:40:24;99925.44;;;21.63;77.96
44457;BME280;30159;49.316;8.558;2022-09-13T08:43:01;99927.66;;;22.04;77.30
44457;BME280;30159;49.316;8.558;2022-09-13T08:45:29;99910.66;;;21.72;77.09
44457;BME280;30159;49.316;8.558;2022-09-13T08:48:01;99928.59;;;21.88;76.85
44457;BME280;30159;49.316;8.558;2022-09-13T08:50:32;99913.59;;;22.05;76.95
44457;BME280;30159;49.316;8.558;2022-09-13T08:53:14;99917.25;;;22.70;75.02
44457;BME280;30159;49.316;8.558;2022-09-13T08:55:50;99924.47;;;22.82;73.91
44457;BME280;30159;49.316;8.558;2022-09-13T08:58:37;99928.25;;;22.70;73.24
44457;BME280;30159;49.316;8.558;2022-09-13T09:01:16;99942.06;;;23.04;73.05
44457;BME280;30159;49.316;8.558;2022-09-13T09:03:48;99921.34;;;23.13;73.55
44457;BME280;30159;49.316;8.558;2022-09-13T09:06:18;99931.00;;;23.34;72.40
44457;BME280;30159;49.316;8.558;2022-09-13T09:08:49;99927.13;;;23.80;71.87
44457;BME280;30159;49.316;8.558;2022-09-13T09:11:26;99921.66;;;23.87;71.05
44457;BME280;30159;49.316;8.558;2022-09-13T09:14:01;99916.59;;;23.48;71.44
44457;BME280;30159;49.316;8.558;2022-09-13T09:16:36;99857.34;;;22.86;73.17
44457;BME280;30159;49.316;8.558;2022-09-13T09:19:12;99830.56;;;22.80;73.92
44457;BME280;30159;49.316;8.558;2022-09-13T09:21:43;99902.53;;;23.60;72.18
44457;BME280;30159;49.316;8.558;2022-09-13T09:24:17;99891.28;;;23.35;71.86
44457;BME280;30159;49.316;8.558;2022-09-13T09:26:44;99903.56;;;22.73;74.57
44457;BME280;30159;49.316;8.558;2022-09-13T09:29:17;99901.38;;;23.20;74.19
44457;BME280;30159;49.316;8.558;2022-09-13T09:31:50;99907.50;;;23.44;72.92
44457;BME280;30159;49.316;8.558;2022-09-13T09:34:27;99912.75;;;24.04;71.99
44457;BME280;30159;49.316;8.558;2022-09-13T09:37:10;99942.59;;;24.47;68.56
44457;BME280;30159;49.316;8.558;2022-09-13T09:39:41;99896.34;;;24.22;69.09
44457;BME280;30159;49.316;8.558;2022-09-13T09:42:12;99945.94;;;24.81;68.45
44457;BME280;30159;49.316;8.558;2022-09-13T09:44:43;99950.75;;;25.06;68.58
44457;BME280;30159;49.316;8.558;2022-09-13T09:47:15;99954.44;;;25.35;66.79
44457;BME280;30159;49.316;8.558;2022-09-13T09:49:45;99904.31;;;25.26;66.97
44457;BME280;30159;49.316;8.558;2022-09-13T09:52:48;99942.25;;;25.75;66.22
44457;BME280;30159;49.316;8.558;2022-09-13T09:55:26;99937.50;;;25.79;65.63
44457;BME280;30159;49.316;8.558;2022-09-13T09:57:55;99916.63;;;25.93;65.22
44457;BME280;30159;49.316;8.558;2022-09-13T10:00:25;99921.34;;;26.21;64.43
44457;BME280;30159;49.316;8.558;2022-09-13T10:02:56;99920.56;;;26.20;63.75
44457;BME280;30159;49.316;8.558;2022-09-13T10:05:24;99909.91;;;25.76;65.09
44457;BME280;30159;49.316;8.558;2022-09-13T10:07:57;99877.47;;;25.19;65.81
44457;BME280;30159;49.316;8.558;2022-09-13T10:10:28;99914.63;;;25.61;66.14
44457;BME280;30159;49.316;8.558;2022-09-13T10:12:58;99892.94;;;25.88;66.04
44457;BME280;30159;49.316;8.558;2022-09-13T10:15:27;99915.00;;;26.27;64.96
44457;BME280;30159;49.316;8.558;2022-09-13T10:18:12;99923.31;;;26.27;64.42
44457;BME280;30159;49.316;8.558;2022-09-13T10:20:41;99934.72;;;26.44;64.27
44457;BME280;30159;49.316;8.558;2022-09-13T10:23:19;99921.66;;;26.62;63.64
44457;BME280;30159;49.316;8.558;2022-09-13T10:25:56;99918.84;;;26.73;62.42
44457;BME280;30159;49.316;8.558;2022-09-13T10:28:24;99938.69;;;26.39;63.86
44457;BME280;30159;49.316;8.558;2022-09-13T10:30:55;99938.66;;;26.46;64.56
44457;BME280;30159;49.316;8.558;2022-09-13T10:33:27;99956.44;;;26.49;64.40
44457;BME280;30159;49.316;8.558;2022-09-13T10:35:57;99965.13;;;26.62;62.80
44457;BME280;30159;49.316;8.558;2022-09-13T10:38:29;99958.38;;;26.70;62.64
44457;BME280;30159;49.316;8.558;2022-09-13T10:40:57;99958.78;;;26.68;63.58
44457;BME280;30159;49.316;8.558;2022-09-13T10:43:28;99946.50;;;26.77;62.11
44457;BME280;30159;49.316;8.558;2022-09-13T10:45:57;99936.94;;;26.96;62.16
44457;BME280;30159;49.316;8.558;2022-09-13T10:48:28;99932.53;;;27.05;61.71
44457;BME280;30159;49.316;8.558;2022-09-13T10:51:06;99936.44;;;27.19;61.51
44457;BME280;30159;49.316;8.558;2022-09-13T10:53:38;99930.63;;;26.95;61.48
44457;BME280;30159;49.316;8.558;2022-09-13T10:56:17;99923.41;;;27.23;61.71
44457;BME280;30159;49.316;8.558;2022-09-13T10:58:44;99934.78;;;27.39;60.89
44457;BME280;30159;49.316;8.558;2022-09-13T11:01:33;99926.97;;;27.20;60.75
44457;BME280;30159;49.316;8.558;2022-09-13T11:04:44;99925.41;;;27.11;62.00
44457;BME280;30159;49.316;8.558;2022-09-13T11:10:09;99910.16;;;27.48;61.55
44457;BME280;30159;49.316;8.558;2022-09-13T11:12:43;99907.38;;;27.52;61.86
44457;BME280;30159;49.316;8.558;2022-09-13T11:15:25;99894.56;;;27.09;61.14
44457;BME280;30159;49.316;8.558;2022-09-13T11:18:12;99773.56;;;26.33;62.76
44457;BME280;30159;49.316;8.558;2022-09-13T11:20:48;99899.34;;;26.98;62.52
44457;BME280;30159;49.316;8.558;2022-09-13T11:26:28;99919.28;;;26.57;62.16
44457;BME280;30159;49.316;8.558;2022-09-13T11:29:06;99913.00;;;26.39;63.39
44457;BME280;30159;49.316;8.558;2022-09-13T11:31:41;99921.66;;;26.48;63.23
44457;BME280;30159;49.316;8.558;2022-09-13T11:34:23;99909.81;;;26.51;62.81
44457;BME280;30159;49.316;8.558;2022-09-13T11:37:06;99912.16;;;26.53;62.09
44457;BME280;30159;49.316;8.558;2022-09-13T11:39:37;99884.63;;;26.06;62.07
44457;BME280;30159;49.316;8.558;2022-09-13T11:42:17;99889.28;;;26.38;61.73
44457;BME280;30159;49.316;8.558;2022-09-13T11:45:20;99912.56;;;26.65;62.07
44457;BME280;30159;49.316;8.558;2022-09-13T11:48:01;99901.59;;;26.19;62.30
44457;BME280;30159;49.316;8.558;2022-09-13T11:50:41;99896.03;;;26.30;62.69
44457;BME280;30159;49.316;8.558;2022-09-13T11:53:42;99762.28;;;25.66;61.78
44457;BME280;30159;49.316;8.558;2022-09-13T11:56:19;99856.00;;;26.66;62.11
44457;BME280;30159;49.316;8.558;2022-09-13T11:58:50;99873.22;;;27.06;62.38
44457;BME280;30159;49.316;8.558;2022-09-13T12:01:20;99876.94;;;27.41;62.60
44457;BME280;30159;49.316;8.558;2022-09-13T12:03:55;99807.81;;;27.27;60.39
44457;BME280;30159;49.316;8.558;2022-09-13T12:06:29;99833.34;;;27.52;60.72
44457;BME280;30159;49.316;8.558;2022-09-13T12:09:01;99849.09;;;28.08;60.64
44457;BME280;30159;49.316;8.558;2022-09-13T12:11:32;99839.72;;;28.32;59.13
44457;BME280;30159;49.316;8.558;2022-09-13T12:14:02;99838.78;;;28.43;58.94
44457;BME280;30159;49.316;8.558;2022-09-13T12:16:31;99833.16;;;28.15;59.20
44457;BME280;30159;49.316;8.558;2022-09-13T12:19:01;99830.44;;;28.12;59.45
44457;BME280;30159;49.316;8.558;2022-09-13T12:21:36;99821.38;;;28.38;59.98
44457;BME280;30159;49.316;8.558;2022-09-13T12:24:07;99813.19;;;28.62;59.22
44457;BME280;30159;49.316;8.558;2022-09-13T12:26:39;99811.81;;;28.47;59.40
44457;BME280;30159;49.316;8.558;2022-09-13T12:29:13;99809.47;;;28.42;59.78
44457;BME280;30159;49.316;8.558;2022-09-13T12:31:41;99804.47;;;28.29;59.24
44457;BME280;30159;49.316;8.558;2022-09-13T12:34:10;99801.50;;;28.44;58.90
44457;BME280;30159;49.316;8.558;2022-09-13T12:36:55;99764.19;;;28.17;58.68
44457;BME280;30159;49.316;8.558;2022-09-13T12:39:37;99777.44;;;28.03;58.11
44457;BME280;30159;49.316;8.558;2022-09-13T12:42:30;99756.78;;;28.07;58.80
44457;BME280;30159;49.316;8.558;2022-09-13T12:45:29;99809.72;;;28.20;57.30
44457;BME280;30159;49.316;8.558;2022-09-13T12:48:21;99808.34;;;28.01;58.42
44457;BME280;30159;49.316;8.558;2022-09-13T12:51:06;99808.25;;;28.12;58.61
44457;BME280;30159;49.316;8.558;2022-09-13T12:54:07;99789.22;;;28.14;58.57
44457;BME280;30159;49.316;8.558;2022-09-13T12:56:51;99781.78;;;28.34;57.28
44457;BME280;30159;49.316;8.558;2022-09-13T12:59:51;99769.59;;;28.28;58.39
44457;BME280;30159;49.316;8.558;2022-09-13T13:02:27;99770.16;;;28.16;58.13
44457;BME280;30159;49.316;8.558;2022-09-13T13:04:59;99734.88;;;27.82;57.67
44457;BME280;30159;49.316;8.558;2022-09-13T13:07:27;99774.00;;;27.91;58.56
44457;BME280;30159;49.316;8.558;2022-09-13T13:09:56;99770.19;;;28.12;57.65
44457;BME280;30159;49.316;8.558;2022-09-13T13:12:29;99777.94;;;28.28;58.51
44457;BME280;30159;49.316;8.558;2022-09-13T13:14:57;99767.69;;;28.25;58.68
44457;BME280;30159;49.316;8.558;2022-09-13T13:17:38;99758.03;;;28.33;58.55
44457;BME280;30159;49.316;8.558;2022-09-13T13:20:40;99767.03;;;28.14;57.91
44457;BME280;30159;49.316;8.558;2022-09-13T13:23:25;99752.00;;;28.11;58.11
44457;BME280;30159;49.316;8.558;2022-09-13T13:26:08;99755.19;;;28.41;57.57
44457;BME280;30159;49.316;8.558;2022-09-13T13:29:04;99761.00;;;28.53;56.80
44457;BME280;30159;49.316;8.558;2022-09-13T13:31:44;99752.03;;;28.38;57.38